sensor_id;sensor_type;location;lat;lon;timestamp;P1;durP1;ratioP1;P2;durP2;ratioP2
11064;SDS011;5585;52.530;7.320;2023-07-31T00:02:12;1.30;;;1.20;;
11064;SDS011;5585;52.530;7.320;2023-07-31T00:04:38;1.65;;;1.08;;
11064;SDS011;5585;52.530;7.320;2023-07-31T00:07:05;1.13;;;1.02;;
11064;SDS011;5585;52.530;7.320;2023-07-31T00:09:31;1.60;;;1.20;;
11064;SDS011;5585;52.530;7.320;2023-07-31T00:11:58;1.17;;;1.00;;
11064;SDS011;5585;52.530;7.320;2023-07-31T00:14:26;1.27;;;1.05;;
11064;SDS011;5585;52.530;7.320;2023-07-31T00:16:52;1.98;;;1.52;;
11064;SDS011;5585;52.530;7.320;2023-07-31T00:19:19;1.30;;;1.13;;
11064;SDS011;5585;52.530;7.320;2023-07-31T00:21:46;1.35;;;0.98;;
11064;SDS011;5585;52.530;7.320;2023-07-31T00:24:12;1.83;;;1.30;;
11064;SDS011;5585;52.530;7.320;2023-07-31T00:26:39;1.27;;;1.17;;
11064;SDS011;5585;52.530;7.320;2023-07-31T00:29:05;1.75;;;1.10;;
11064;SDS011;5585;52.530;7.320;2023-07-31T00:31:33;1.67;;;1.50;;
11064;SDS011;5585;52.530;7.320;2023-07-31T00:33:59;1.27;;;1.02;;
11064;SDS011;5585;52.530;7.320;2023-07-31T00:36:26;1.55;;;1.20;;
11064;SDS011;5585;52.530;7.320;2023-07-31T00:38:52;2.05;;;1.30;;
11064;SDS011;5585;52.530;7.320;2023-07-31T00:41:19;2.63;;;1.60;;
11064;SDS011;5585;52.530;7.320;2023-07-31T00:43:46;2.55;;;1.60;;
11064;SDS011;5585;52.530;7.320;2023-07-31T00:46:12;1.25;;;1.08;;
11064;SDS011;5585;52.530;7.320;2023-07-31T00:48:40;1.85;;;1.20;;
11064;SDS011;5585;52.530;7.320;2023-07-31T00:51:07;2.00;;;1.50;;
11064;SDS011;5585;52.530;7.320;2023-07-31T00:53:34;1.60;;;1.30;;
11064;SDS011;5585;52.530;7.320;2023-07-31T00:56:01;1.48;;;1.17;;
11064;SDS011;5585;52.530;7.320;2023-07-31T00:58:27;1.75;;;1.50;;
11064;SDS011;5585;52.530;7.320;2023-07-31T01:00:54;1.58;;;1.20;;
11064;SDS011;5585;52.530;7.320;2023-07-31T01:03:20;1.83;;;1.20;;
11064;SDS011;5585;52.530;7.320;2023-07-31T01:05:52;1.90;;;1.20;;
11064;SDS011;5585;52.530;7.320;2023-07-31T01:08:24;1.40;;;1.05;;
11064;SDS011;5585;52.530;7.320;2023-07-31T01:10:54;1.30;;;1.00;;
11064;SDS011;5585;52.530;7.320;2023-07-31T01:13:22;1.63;;;1.30;;
11064;SDS011;5585;52.530;7.320;2023-07-31T01:15:49;1.52;;;1.30;;
11064;SDS011;5585;52.530;7.320;2023-07-31T01:18:16;1.20;;;1.00;;
11064;SDS011;5585;52.530;7.320;2023-07-31T01:20:42;1.35;;;1.17;;
11064;SDS011;5585;52.530;7.320;2023-07-31T01:23:26;2.40;;;1.30;;
11064;SDS011;5585;52.530;7.320;2023-07-31T01:26:02;1.30;;;1.15;;
11064;SDS011;5585;52.530;7.320;2023-07-31T01:28:30;2.22;;;1.35;;
11064;SDS011;5585;52.530;7.320;2023-07-31T01:30:58;1.35;;;1.10;;
11064;SDS011;5585;52.530;7.320;2023-07-31T01:33:26;1.25;;;1.10;;
11064;SDS011;5585;52.530;7.320;2023-07-31T01:35:53;1.80;;;1.20;;
11064;SDS011;5585;52.530;7.320;2023-07-31T01:38:20;1.60;;;1.20;;
11064;SDS011;5585;52.530;7.320;2023-07-31T01:40:50;1.23;;;1.02;;
11064;SDS011;5585;52.530;7.320;2023-07-31T01:43:18;1.13;;;1.02;;
11064;SDS011;5585;52.530;7.320;2023-07-31T01:45:45;2.88;;;1.20;;
11064;SDS011;5585;52.530;7.320;2023-07-31T01:48:11;1.00;;;0.90;;
11064;SDS011;5585;52.530;7.320;2023-07-31T01:50:38;1.83;;;1.10;;
11064;SDS011;5585;52.530;7.320;2023-07-31T01:53:04;2.08;;;1.13;;
11064;SDS011;5585;52.530;7.320;2023-07-31T01:55:31;0.82;;;0.77;;
11064;SDS011;5585;52.530;7.320;2023-07-31T01:57:58;1.17;;;0.90;;
11064;SDS011;5585;52.530;7.320;2023-07-31T02:00:25;1.48;;;1.02;;
11064;SDS011;5585;52.530;7.320;2023-07-31T02:02:52;1.65;;;0.93;;
11064;SDS011;5585;52.530;7.320;2023-07-31T02:05:18;0.88;;;0.63;;
11064;SDS011;5585;52.530;7.320;2023-07-31T02:07:45;0.93;;;0.85;;
11064;SDS011;5585;52.530;7.320;2023-07-31T02:10:12;2.25;;;0.60;;
11064;SDS011;5585;52.530;7.320;2023-07-31T02:12:38;1.00;;;0.90;;
11064;SDS011;5585;52.530;7.320;2023-07-31T02:15:05;1.90;;;0.60;;
11064;SDS011;5585;52.530;7.320;2023-07-31T02:17:33;0.95;;;0.80;;
11064;SDS011;5585;52.530;7.320;2023-07-31T02:20:00;0.80;;;0.70;;
11064;SDS011;5585;52.530;7.320;2023-07-31T02:22:27;0.77;;;0.73;;
11064;SDS011;5585;52.530;7.320;2023-07-31T02:24:53;1.35;;;0.55;;
11064;SDS011;5585;52.530;7.320;2023-07-31T02:27:20;0.73;;;0.60;;
11064;SDS011;5585;52.530;7.320;2023-07-31T02:29:49;1.00;;;0.60;;
11064;SDS011;5585;52.530;7.320;2023-07-31T02:32:15;0.60;;;0.60;;
11064;SDS011;5585;52.530;7.320;2023-07-31T02:34:43;0.50;;;0.40;;
11064;SDS011;5585;52.530;7.320;2023-07-31T02:37:10;0.73;;;0.50;;
11064;SDS011;5585;52.530;7.320;2023-07-31T02:39:36;0.60;;;0.50;;
11064;SDS011;5585;52.530;7.320;2023-07-31T02:42:03;0.70;;;0.50;;
11064;SDS011;5585;52.530;7.320;2023-07-31T02:44:30;1.85;;;0.50;;
11064;SDS011;5585;52.530;7.320;2023-07-31T02:46:57;0.80;;;0.40;;
11064;SDS011;5585;52.530;7.320;2023-07-31T02:49:23;0.50;;;0.38;;
11064;SDS011;5585;52.530;7.320;2023-07-31T02:51:51;0.55;;;0.38;;
11064;SDS011;5585;52.530;7.320;2023-07-31T02:54:18;0.50;;;0.30;;
11064;SDS011;5585;52.530;7.320;2023-07-31T02:56:46;0.47;;;0.40;;
11064;SDS011;5585;52.530;7.320;2023-07-31T02:59:13;0.43;;;0.30;;
11064;SDS011;5585;52.530;7.320;2023-07-31T03:01:39;0.38;;;0.30;;
11064;SDS011;5585;52.530;7.320;2023-07-31T03:04:06;0.60;;;0.43;;
11064;SDS011;5585;52.530;7.320;2023-07-31T03:06:33;0.40;;;0.40;;
11064;SDS011;5585;52.530;7.320;2023-07-31T03:09:00;0.60;;;0.50;;
11064;SDS011;5585;52.530;7.320;2023-07-31T03:11:27;0.90;;;0.47;;
11064;SDS011;5585;52.530;7.320;2023-07-31T03:13:54;0.47;;;0.40;;
11064;SDS011;5585;52.530;7.320;2023-07-31T03:16:20;0.40;;;0.40;;
11064;SDS011;5585;52.530;7.320;2023-07-31T03:18:47;0.30;;;0.30;;
11064;SDS011;5585;52.530;7.320;2023-07-31T03:21:14;0.57;;;0.38;;
11064;SDS011;5585;52.530;7.320;2023-07-31T03:23:40;1.13;;;0.60;;
11064;SDS011;5585;52.530;7.320;2023-07-31T03:26:10;0.63;;;0.63;;
11064;SDS011;5585;52.530;7.320;2023-07-31T03:28:36;1.52;;;0.50;;
11064;SDS011;5585;52.530;7.320;2023-07-31T03:31:03;0.85;;;0.50;;
11064;SDS011;5585;52.530;7.320;2023-07-31T03:33:29;1.23;;;0.60;;
11064;SDS011;5585;52.530;7.320;2023-07-31T03:35:56;0.73;;;0.38;;
11064;SDS011;5585;52.530;7.320;2023-07-31T03:38:22;0.43;;;0.43;;
11064;SDS011;5585;52.530;7.320;2023-07-31T03:40:49;0.68;;;0.50;;
11064;SDS011;5585;52.530;7.320;2023-07-31T03:43:17;0.30;;;0.30;;
11064;SDS011;5585;52.530;7.320;2023-07-31T03:45:43;0.55;;;0.40;;
11064;SDS011;5585;52.530;7.320;2023-07-31T03:48:10;1.38;;;0.47;;
11064;SDS011;5585;52.530;7.320;2023-07-31T03:50:37;0.60;;;0.30;;
11064;SDS011;5585;52.530;7.320;2023-07-31T03:53:03;0.55;;;0.40;;
11064;SDS011;5585;52.530;7.320;2023-07-31T03:55:30;0.52;;;0.30;;
11064;SDS011;5585;52.530;7.320;2023-07-31T03:57:56;0.40;;;0.40;;
11064;SDS011;5585;52.530;7.320;2023-07-31T04:00:26;0.40;;;0.30;;
11064;SDS011;5585;52.530;7.320;2023-07-31T04:02:52;0.68;;;0.60;;
11064;SDS011;5585;52.530;7.320;2023-07-31T04:05:19;1.23;;;0.40;;
11064;SDS011;5585;52.530;7.320;2023-07-31T04:07:46;0.32;;;0.32;;
11064;SDS011;5585;52.530;7.320;2023-07-31T04:10:12;0.50;;;0.47;;
11064;SDS011;5585;52.530;7.320;2023-07-31T04:12:39;0.50;;;0.40;;
11064;SDS011;5585;52.530;7.320;2023-07-31T04:15:06;1.42;;;0.63;;
11064;SDS011;5585;52.530;7.320;2023-07-31T04:17:34;0.50;;;0.40;;
11064;SDS011;5585;52.530;7.320;2023-07-31T04:20:00;1.00;;;0.50;;
11064;SDS011;5585;52.530;7.320;2023-07-31T04:22:27;0.93;;;0.60;;
11064;SDS011;5585;52.530;7.320;2023-07-31T04:24:53;1.15;;;0.80;;
11064;SDS011;5585;52.530;7.320;2023-07-31T04:27:23;1.63;;;0.80;;
11064;SDS011;5585;52.530;7.320;2023-07-31T04:29:49;1.60;;;0.98;;
11064;SDS011;5585;52.530;7.320;2023-07-31T04:32:16;1.60;;;0.98;;
11064;SDS011;5585;52.530;7.320;2023-07-31T04:34:44;2.05;;;1.30;;
11064;SDS011;5585;52.530;7.320;2023-07-31T04:37:10;2.55;;;1.38;;
11064;SDS011;5585;52.530;7.320;2023-07-31T04:39:37;1.70;;;1.17;;
11064;SDS011;5585;52.530;7.320;2023-07-31T04:42:03;2.15;;;1.70;;
11064;SDS011;5585;52.530;7.320;2023-07-31T04:44:30;3.00;;;1.88;;
11064;SDS011;5585;52.530;7.320;2023-07-31T04:46:56;3.45;;;1.95;;
11064;SDS011;5585;52.530;7.320;2023-07-31T04:49:23;2.10;;;1.30;;
11064;SDS011;5585;52.530;7.320;2023-07-31T04:51:50;2.65;;;1.67;;
11064;SDS011;5585;52.530;7.320;2023-07-31T04:54:17;4.68;;;2.10;;
11064;SDS011;5585;52.530;7.320;2023-07-31T04:56:43;3.78;;;2.63;;
11064;SDS011;5585;52.530;7.320;2023-07-31T04:59:10;2.40;;;2.13;;
11064;SDS011;5585;52.530;7.320;2023-07-31T05:01:36;3.65;;;2.35;;
11064;SDS011;5585;52.530;7.320;2023-07-31T05:04:03;4.57;;;2.78;;
11064;SDS011;5585;52.530;7.320;2023-07-31T05:06:29;8.68;;;3.85;;
11064;SDS011;5585;52.530;7.320;2023-07-31T05:08:57;5.65;;;3.35;;
11064;SDS011;5585;52.530;7.320;2023-07-31T05:11:24;5.53;;;3.30;;
11064;SDS011;5585;52.530;7.320;2023-07-31T05:13:50;6.43;;;3.70;;
11064;SDS011;5585;52.530;7.320;2023-07-31T05:16:17;7.63;;;3.90;;
11064;SDS011;5585;52.530;7.320;2023-07-31T05:18:43;7.47;;;3.90;;
11064;SDS011;5585;52.530;7.320;2023-07-31T05:21:10;5.78;;;3.75;;
11064;SDS011;5585;52.530;7.320;2023-07-31T05:23:36;8.32;;;4.18;;
11064;SDS011;5585;52.530;7.320;2023-07-31T05:26:05;7.82;;;4.10;;
11064;SDS011;5585;52.530;7.320;2023-07-31T05:28:33;6.10;;;3.97;;
11064;SDS011;5585;52.530;7.320;2023-07-31T05:30:59;9.40;;;4.85;;
11064;SDS011;5585;52.530;7.320;2023-07-31T05:33:26;8.77;;;5.15;;
11064;SDS011;5585;52.530;7.320;2023-07-31T05:35:52;9.65;;;5.28;;
11064;SDS011;5585;52.530;7.320;2023-07-31T05:38:19;12.68;;;5.97;;
11064;SDS011;5585;52.530;7.320;2023-07-31T05:40:46;11.82;;;5.53;;
11064;SDS011;5585;52.530;7.320;2023-07-31T05:43:14;10.93;;;5.80;;
11064;SDS011;5585;52.530;7.320;2023-07-31T05:45:41;11.23;;;5.90;;
11064;SDS011;5585;52.530;7.320;2023-07-31T05:48:08;13.43;;;6.75;;
11064;SDS011;5585;52.530;7.320;2023-07-31T05:50:34;9.02;;;5.55;;
11064;SDS011;5585;52.530;7.320;2023-07-31T05:53:02;10.27;;;5.85;;
11064;SDS011;5585;52.530;7.320;2023-07-31T05:55:28;11.23;;;6.28;;
11064;SDS011;5585;52.530;7.320;2023-07-31T05:57:55;10.30;;;5.60;;
11064;SDS011;5585;52.530;7.320;2023-07-31T06:00:23;8.75;;;5.38;;
11064;SDS011;5585;52.530;7.320;2023-07-31T06:02:49;11.55;;;6.28;;
11064;SDS011;5585;52.530;7.320;2023-07-31T06:05:16;13.23;;;6.22;;
11064;SDS011;5585;52.530;7.320;2023-07-31T06:07:42;16.67;;;7.05;;
11064;SDS011;5585;52.530;7.320;2023-07-31T06:10:09;12.43;;;7.13;;
11064;SDS011;5585;52.530;7.320;2023-07-31T06:12:35;15.38;;;7.28;;
11064;SDS011;5585;52.530;7.320;2023-07-31T06:15:03;13.43;;;6.45;;
11064;SDS011;5585;52.530;7.320;2023-07-31T06:17:31;12.18;;;6.32;;
11064;SDS011;5585;52.530;7.320;2023-07-31T06:19:57;12.98;;;6.40;;
11064;SDS011;5585;52.530;7.320;2023-07-31T06:22:24;9.57;;;5.75;;
11064;SDS011;5585;52.530;7.320;2023-07-31T06:24:50;11.25;;;6.03;;
11064;SDS011;5585;52.530;7.320;2023-07-31T06:27:17;11.80;;;5.93;;
11064;SDS011;5585;52.530;7.320;2023-07-31T06:29:43;16.17;;;6.20;;
11064;SDS011;5585;52.530;7.320;2023-07-31T06:32:10;9.57;;;5.80;;
11064;SDS011;5585;52.530;7.320;2023-07-31T06:34:38;9.88;;;5.60;;
11064;SDS011;5585;52.530;7.320;2023-07-31T06:37:04;10.60;;;6.22;;
11064;SDS011;5585;52.530;7.320;2023-07-31T06:39:31;12.48;;;6.38;;
11064;SDS011;5585;52.530;7.320;2023-07-31T06:41:57;14.82;;;6.70;;
11064;SDS011;5585;52.530;7.320;2023-07-31T06:44:24;12.20;;;6.47;;
11064;SDS011;5585;52.530;7.320;2023-07-31T06:46:50;11.57;;;5.68;;
11064;SDS011;5585;52.530;7.320;2023-07-31T06:49:17;12.07;;;5.60;;
11064;SDS011;5585;52.530;7.320;2023-07-31T06:51:45;11.85;;;5.72;;
11064;SDS011;5585;52.530;7.320;2023-07-31T06:54:11;10.82;;;5.88;;
11064;SDS011;5585;52.530;7.320;2023-07-31T06:56:38;10.90;;;5.72;;
11064;SDS011;5585;52.530;7.320;2023-07-31T06:59:04;13.93;;;5.75;;
11064;SDS011;5585;52.530;7.320;2023-07-31T07:01:31;8.80;;;5.90;;
11064;SDS011;5585;52.530;7.320;2023-07-31T07:03:57;9.98;;;5.60;;
11064;SDS011;5585;52.530;7.320;2023-07-31T07:06:24;15.55;;;6.53;;
11064;SDS011;5585;52.530;7.320;2023-07-31T07:08:51;11.27;;;5.82;;
11064;SDS011;5585;52.530;7.320;2023-07-31T07:11:18;8.63;;;5.40;;
11064;SDS011;5585;52.530;7.320;2023-07-31T07:13:45;11.07;;;5.88;;
11064;SDS011;5585;52.530;7.320;2023-07-31T07:16:11;11.13;;;5.93;;
11064;SDS011;5585;52.530;7.320;2023-07-31T07:18:38;13.30;;;6.13;;
11064;SDS011;5585;52.530;7.320;2023-07-31T07:21:04;10.02;;;5.65;;
11064;SDS011;5585;52.530;7.320;2023-07-31T07:23:31;8.10;;;5.45;;
11064;SDS011;5585;52.530;7.320;2023-07-31T07:25:59;9.75;;;5.45;;
11064;SDS011;5585;52.530;7.320;2023-07-31T07:28:25;8.88;;;5.45;;
11064;SDS011;5585;52.530;7.320;2023-07-31T07:30:53;10.00;;;5.22;;
11064;SDS011;5585;52.530;7.320;2023-07-31T07:33:20;8.73;;;5.03;;
11064;SDS011;5585;52.530;7.320;2023-07-31T07:35:46;7.60;;;4.43;;
11064;SDS011;5585;52.530;7.320;2023-07-31T07:38:13;7.72;;;4.25;;
11064;SDS011;5585;52.530;7.320;2023-07-31T07:40:40;8.30;;;4.32;;
11064;SDS011;5585;52.530;7.320;2023-07-31T07:43:08;9.30;;;4.35;;
11064;SDS011;5585;52.530;7.320;2023-07-31T07:45:34;5.22;;;3.85;;
11064;SDS011;5585;52.530;7.320;2023-07-31T07:48:01;5.10;;;3.80;;
11064;SDS011;5585;52.530;7.320;2023-07-31T07:50:27;6.93;;;3.97;;
11064;SDS011;5585;52.530;7.320;2023-07-31T07:52:54;9.57;;;4.30;;
11064;SDS011;5585;52.530;7.320;2023-07-31T07:55:21;4.65;;;3.53;;
11064;SDS011;5585;52.530;7.320;2023-07-31T07:57:47;6.32;;;3.67;;
11064;SDS011;5585;52.530;7.320;2023-07-31T08:00:16;5.97;;;3.55;;
11064;SDS011;5585;52.530;7.320;2023-07-31T08:02:43;5.78;;;3.10;;
11064;SDS011;5585;52.530;7.320;2023-07-31T08:05:10;4.85;;;3.38;;
11064;SDS011;5585;52.530;7.320;2023-07-31T08:07:36;5.45;;;3.35;;
11064;SDS011;5585;52.530;7.320;2023-07-31T08:10:03;4.38;;;3.03;;
11064;SDS011;5585;52.530;7.320;2023-07-31T08:12:30;5.43;;;2.80;;
11064;SDS011;5585;52.530;7.320;2023-07-31T08:14:56;5.07;;;2.90;;
11064;SDS011;5585;52.530;7.320;2023-07-31T08:17:26;3.88;;;2.60;;
11064;SDS011;5585;52.530;7.320;2023-07-31T08:19:53;5.38;;;2.65;;
11064;SDS011;5585;52.530;7.320;2023-07-31T08:22:19;5.57;;;3.10;;
11064;SDS011;5585;52.530;7.320;2023-07-31T08:24:46;4.25;;;2.92;;
11064;SDS011;5585;52.530;7.320;2023-07-31T08:27:12;4.65;;;2.63;;
11064;SDS011;5585;52.530;7.320;2023-07-31T08:29:39;3.00;;;2.30;;
11064;SDS011;5585;52.530;7.320;2023-07-31T08:32:06;4.28;;;2.13;;
11064;SDS011;5585;52.530;7.320;2023-07-31T08:34:34;3.53;;;2.28;;
11064;SDS011;5585;52.530;7.320;2023-07-31T08:37:00;3.42;;;1.95;;
11064;SDS011;5585;52.530;7.320;2023-07-31T08:39:27;2.80;;;1.88;;
11064;SDS011;5585;52.530;7.320;2023-07-31T08:41:57;2.50;;;1.85;;
11064;SDS011;5585;52.530;7.320;2023-07-31T08:44:24;2.17;;;1.80;;
11064;SDS011;5585;52.530;7.320;2023-07-31T08:46:50;2.53;;;1.50;;
11064;SDS011;5585;52.530;7.320;2023-07-31T08:49:17;2.88;;;1.98;;
11064;SDS011;5585;52.530;7.320;2023-07-31T08:51:47;2.30;;;1.80;;
11064;SDS011;5585;52.530;7.320;2023-07-31T08:54:15;2.33;;;1.83;;
11064;SDS011;5585;52.530;7.320;2023-07-31T08:56:44;2.63;;;1.58;;
11064;SDS011;5585;52.530;7.320;2023-07-31T08:59:11;2.10;;;1.50;;
11064;SDS011;5585;52.530;7.320;2023-07-31T09:01:39;1.92;;;1.33;;
11064;SDS011;5585;52.530;7.320;2023-07-31T09:04:07;1.58;;;1.10;;
11064;SDS011;5585;52.530;7.320;2023-07-31T09:06:35;2.47;;;1.40;;
11064;SDS011;5585;52.530;7.320;2023-07-31T09:09:04;1.73;;;1.27;;
11064;SDS011;5585;52.530;7.320;2023-07-31T09:11:30;1.50;;;1.20;;
11064;SDS011;5585;52.530;7.320;2023-07-31T09:13:57;1.10;;;1.00;;
11064;SDS011;5585;52.530;7.320;2023-07-31T09:16:27;2.13;;;1.35;;
11064;SDS011;5585;52.530;7.320;2023-07-31T09:18:55;1.15;;;1.05;;
11064;SDS011;5585;52.530;7.320;2023-07-31T09:21:27;1.05;;;0.82;;
11064;SDS011;5585;52.530;7.320;2023-07-31T09:23:54;0.95;;;0.70;;
11064;SDS011;5585;52.530;7.320;2023-07-31T09:26:32;0.80;;;0.70;;
11064;SDS011;5585;52.530;7.320;2023-07-31T09:28:59;1.30;;;0.75;;
11064;SDS011;5585;52.530;7.320;2023-07-31T09:31:32;1.08;;;0.70;;
11064;SDS011;5585;52.530;7.320;2023-07-31T09:33:58;0.77;;;0.60;;
11064;SDS011;5585;52.530;7.320;2023-07-31T09:36:28;0.45;;;0.45;;
11064;SDS011;5585;52.530;7.320;2023-07-31T09:38:55;1.08;;;0.70;;
11064;SDS011;5585;52.530;7.320;2023-07-31T09:41:21;0.57;;;0.40;;
11064;SDS011;5585;52.530;7.320;2023-07-31T09:43:54;0.70;;;0.40;;
11064;SDS011;5585;52.530;7.320;2023-07-31T09:46:21;0.50;;;0.50;;
11064;SDS011;5585;52.530;7.320;2023-07-31T09:48:47;1.13;;;0.70;;
11064;SDS011;5585;52.530;7.320;2023-07-31T09:51:14;0.70;;;0.60;;
11064;SDS011;5585;52.530;7.320;2023-07-31T09:53:40;0.70;;;0.50;;
11064;SDS011;5585;52.530;7.320;2023-07-31T09:56:07;0.50;;;0.40;;
11064;SDS011;5585;52.530;7.320;2023-07-31T09:58:34;0.38;;;0.38;;
11064;SDS011;5585;52.530;7.320;2023-07-31T10:01:02;0.60;;;0.60;;
11064;SDS011;5585;52.530;7.320;2023-07-31T10:03:29;0.45;;;0.40;;
11064;SDS011;5585;52.530;7.320;2023-07-31T10:05:56;0.45;;;0.32;;
11064;SDS011;5585;52.530;7.320;2023-07-31T10:08:23;0.30;;;0.30;;
11064;SDS011;5585;52.530;7.320;2023-07-31T10:10:54;0.40;;;0.40;;
11064;SDS011;5585;52.530;7.320;2023-07-31T10:13:23;0.50;;;0.50;;
11064;SDS011;5585;52.530;7.320;2023-07-31T10:15:50;0.40;;;0.40;;
11064;SDS011;5585;52.530;7.320;2023-07-31T10:18:18;0.63;;;0.40;;
11064;SDS011;5585;52.530;7.320;2023-07-31T10:20:46;0.52;;;0.50;;
11064;SDS011;5585;52.530;7.320;2023-07-31T10:23:13;0.50;;;0.50;;
11064;SDS011;5585;52.530;7.320;2023-07-31T10:25:40;0.63;;;0.40;;
11064;SDS011;5585;52.530;7.320;2023-07-31T10:28:07;0.40;;;0.40;;
11064;SDS011;5585;52.530;7.320;2023-07-31T10:30:34;0.55;;;0.50;;
11064;SDS011;5585;52.530;7.320;2023-07-31T10:33:03;0.50;;;0.40;;
11064;SDS011;5585;52.530;7.320;2023-07-31T10:35:32;0.30;;;0.30;;
11064;SDS011;5585;52.530;7.320;2023-07-31T10:38:09;2.72;;;0.60;;
11064;SDS011;5585;52.530;7.320;2023-07-31T10:40:35;1.00;;;0.50;;
11064;SDS011;5585;52.530;7.320;2023-07-31T10:43:02;0.50;;;0.50;;
11064;SDS011;5585;52.530;7.320;2023-07-31T10:45:30;0.45;;;0.45;;
11064;SDS011;5585;52.530;7.320;2023-07-31T10:47:58;0.28;;;0.22;;
11064;SDS011;5585;52.530;7.320;2023-07-31T10:50:27;0.30;;;0.30;;
11064;SDS011;5585;52.530;7.320;2023-07-31T10:52:55;0.32;;;0.32;;
11064;SDS011;5585;52.530;7.320;2023-07-31T10:55:24;0.38;;;0.38;;
11064;SDS011;5585;52.530;7.320;2023-07-31T10:57:50;0.52;;;0.50;;
11064;SDS011;5585;52.530;7.320;2023-07-31T11:00:21;0.55;;;0.47;;
11064;SDS011;5585;52.530;7.320;2023-07-31T11:02:57;0.50;;;0.50;;
11064;SDS011;5585;52.530;7.320;2023-07-31T11:08:11;0.70;;;0.70;;
11064;SDS011;5585;52.530;7.320;2023-07-31T11:10:37;0.60;;;0.60;;
11064;SDS011;5585;52.530;7.320;2023-07-31T11:13:06;1.02;;;0.93;;
11064;SDS011;5585;52.530;7.320;2023-07-31T11:15:32;1.63;;;0.80;;
11064;SDS011;5585;52.530;7.320;2023-07-31T11:17:59;3.13;;;1.05;;
11064;SDS011;5585;52.530;7.320;2023-07-31T11:20:29;0.82;;;0.77;;
11064;SDS011;5585;52.530;7.320;2023-07-31T11:22:57;1.20;;;1.00;;
11064;SDS011;5585;52.530;7.320;2023-07-31T11:25:25;0.90;;;0.90;;
11064;SDS011;5585;52.530;7.320;2023-07-31T11:27:52;1.15;;;1.05;;
11064;SDS011;5585;52.530;7.320;2023-07-31T11:30:19;1.55;;;1.20;;
11064;SDS011;5585;52.530;7.320;2023-07-31T11:32:46;3.00;;;1.23;;
11064;SDS011;5585;52.530;7.320;2023-07-31T11:35:12;1.42;;;1.15;;
11064;SDS011;5585;52.530;7.320;2023-07-31T11:37:39;1.70;;;1.30;;
11064;SDS011;5585;52.530;7.320;2023-07-31T11:40:06;1.60;;;1.50;;
11064;SDS011;5585;52.530;7.320;2023-07-31T11:42:35;1.30;;;1.20;;
11064;SDS011;5585;52.530;7.320;2023-07-31T11:45:02;1.48;;;1.35;;
11064;SDS011;5585;52.530;7.320;2023-07-31T11:47:29;1.50;;;1.40;;
11064;SDS011;5585;52.530;7.320;2023-07-31T11:49:56;2.13;;;1.73;;
11064;SDS011;5585;52.530;7.320;2023-07-31T11:52:23;1.80;;;1.70;;
11064;SDS011;5585;52.530;7.320;2023-07-31T11:54:50;2.38;;;1.90;;
11064;SDS011;5585;52.530;7.320;2023-07-31T11:57:17;2.53;;;2.22;;
11064;SDS011;5585;52.530;7.320;2023-07-31T11:59:46;2.45;;;2.15;;
11064;SDS011;5585;52.530;7.320;2023-07-31T12:02:12;1.92;;;1.75;;
11064;SDS011;5585;52.530;7.320;2023-07-31T12:04:39;2.30;;;2.10;;
11064;SDS011;5585;52.530;7.320;2023-07-31T12:07:05;2.45;;;2.25;;
11064;SDS011;5585;52.530;7.320;2023-07-31T12:09:32;3.30;;;2.20;;
11064;SDS011;5585;52.530;7.320;2023-07-31T12:11:58;2.80;;;2.58;;
11064;SDS011;5585;52.530;7.320;2023-07-31T12:14:27;2.80;;;2.60;;
11064;SDS011;5585;52.530;7.320;2023-07-31T12:16:56;3.67;;;2.72;;
11064;SDS011;5585;52.530;7.320;2023-07-31T12:19:22;2.75;;;2.50;;
11064;SDS011;5585;52.530;7.320;2023-07-31T12:21:49;3.05;;;2.83;;
11064;SDS011;5585;52.530;7.320;2023-07-31T12:24:17;3.42;;;3.13;;
11064;SDS011;5585;52.530;7.320;2023-07-31T12:26:47;3.78;;;3.42;;
11064;SDS011;5585;52.530;7.320;2023-07-31T12:29:14;3.28;;;3.00;;
11064;SDS011;5585;52.530;7.320;2023-07-31T12:31:41;3.75;;;3.40;;
11064;SDS011;5585;52.530;7.320;2023-07-31T12:34:15;4.88;;;4.28;;
11064;SDS011;5585;52.530;7.320;2023-07-31T12:36:43;3.50;;;3.20;;
11064;SDS011;5585;52.530;7.320;2023-07-31T12:39:10;3.83;;;3.53;;
11064;SDS011;5585;52.530;7.320;2023-07-31T12:41:36;4.68;;;3.75;;
11064;SDS011;5585;52.530;7.320;2023-07-31T12:44:03;4.35;;;3.70;;
11064;SDS011;5585;52.530;7.320;2023-07-31T12:46:30;3.78;;;2.80;;
11064;SDS011;5585;52.530;7.320;2023-07-31T12:48:56;4.40;;;4.00;;
11064;SDS011;5585;52.530;7.320;2023-07-31T12:51:24;4.38;;;3.97;;
11064;SDS011;5585;52.530;7.320;2023-07-31T12:53:50;4.47;;;3.60;;
11064;SDS011;5585;52.530;7.320;2023-07-31T12:56:17;3.85;;;3.55;;
11064;SDS011;5585;52.530;7.320;2023-07-31T12:58:43;4.82;;;4.38;;
11064;SDS011;5585;52.530;7.320;2023-07-31T13:01:10;4.35;;;3.88;;
11064;SDS011;5585;52.530;7.320;2023-07-31T13:03:36;4.70;;;4.30;;
11064;SDS011;5585;52.530;7.320;2023-07-31T13:06:03;5.95;;;3.85;;
11064;SDS011;5585;52.530;7.320;2023-07-31T13:08:32;3.70;;;3.40;;
11064;SDS011;5585;52.530;7.320;2023-07-31T13:10:58;5.30;;;4.50;;
11064;SDS011;5585;52.530;7.320;2023-07-31T13:13:25;5.72;;;4.00;;
11064;SDS011;5585;52.530;7.320;2023-07-31T13:15:51;3.83;;;3.10;;
11064;SDS011;5585;52.530;7.320;2023-07-31T13:18:18;4.55;;;4.10;;
11064;SDS011;5585;52.530;7.320;2023-07-31T13:20:44;4.93;;;4.45;;
11064;SDS011;5585;52.530;7.320;2023-07-31T13:23:11;4.40;;;4.00;;
11064;SDS011;5585;52.530;7.320;2023-07-31T13:25:39;4.80;;;4.28;;
11064;SDS011;5585;52.530;7.320;2023-07-31T13:28:05;3.22;;;2.95;;
11064;SDS011;5585;52.530;7.320;2023-07-31T13:30:32;3.75;;;3.30;;
11064;SDS011;5585;52.530;7.320;2023-07-31T13:32:58;3.97;;;3.30;;
11064;SDS011;5585;52.530;7.320;2023-07-31T13:35:25;2.85;;;2.65;;
11064;SDS011;5585;52.530;7.320;2023-07-31T13:37:51;2.85;;;2.65;;
11064;SDS011;5585;52.530;7.320;2023-07-31T13:40:17;3.88;;;3.42;;
11064;SDS011;5585;52.530;7.320;2023-07-31T13:42:45;3.08;;;2.78;;
11064;SDS011;5585;52.530;7.320;2023-07-31T13:45:13;3.05;;;2.75;;
11064;SDS011;5585;52.530;7.320;2023-07-31T13:47:40;3.75;;;3.10;;
11064;SDS011;5585;52.530;7.320;2023-07-31T13:50:06;5.43;;;3.20;;
11064;SDS011;5585;52.530;7.320;2023-07-31T13:52:33;3.78;;;3.35;;
11064;SDS011;5585;52.530;7.320;2023-07-31T13:54:59;3.30;;;3.00;;
11064;SDS011;5585;52.530;7.320;2023-07-31T13:57:26;3.35;;;3.08;;
11064;SDS011;5585;52.530;7.320;2023-07-31T13:59:54;3.10;;;2.83;;
11064;SDS011;5585;52.530;7.320;2023-07-31T14:02:21;3.80;;;3.42;;
11064;SDS011;5585;52.530;7.320;2023-07-31T14:04:47;3.60;;;3.28;;
11064;SDS011;5585;52.530;7.320;2023-07-31T14:07:14;3.70;;;3.40;;
11064;SDS011;5585;52.530;7.320;2023-07-31T14:09:42;3.83;;;3.38;;
11064;SDS011;5585;52.530;7.320;2023-07-31T14:12:09;3.75;;;3.45;;
11064;SDS011;5585;52.530;7.320;2023-07-31T14:14:35;4.32;;;3.83;;
11064;SDS011;5585;52.530;7.320;2023-07-31T14:17:03;3.83;;;3.47;;
11064;SDS011;5585;52.530;7.320;2023-07-31T14:19:30;3.90;;;3.60;;
11064;SDS011;5585;52.530;7.320;2023-07-31T14:21:58;4.95;;;4.45;;
11064;SDS011;5585;52.530;7.320;2023-07-31T14:24:24;5.82;;;4.78;;
11064;SDS011;5585;52.530;7.320;2023-07-31T14:26:51;4.30;;;3.90;;
11064;SDS011;5585;52.530;7.320;2023-07-31T14:29:17;4.90;;;4.40;;
11064;SDS011;5585;52.530;7.320;2023-07-31T14:31:44;5.68;;;4.32;;
11064;SDS011;5585;52.530;7.320;2023-07-31T14:34:12;4.85;;;4.05;;
11064;SDS011;5585;52.530;7.320;2023-07-31T14:36:38;4.72;;;4.00;;
11064;SDS011;5585;52.530;7.320;2023-07-31T14:39:05;4.22;;;3.83;;
11064;SDS011;5585;52.530;7.320;2023-07-31T14:41:32;4.82;;;4.43;;
11064;SDS011;5585;52.530;7.320;2023-07-31T14:43:58;4.85;;;4.30;;
11064;SDS011;5585;52.530;7.320;2023-07-31T14:46:25;5.03;;;4.20;;
11064;SDS011;5585;52.530;7.320;2023-07-31T14:48:51;4.82;;;4.38;;
11064;SDS011;5585;52.530;7.320;2023-07-31T14:51:19;4.10;;;3.70;;
11064;SDS011;5585;52.530;7.320;2023-07-31T14:53:46;3.90;;;3.60;;
11064;SDS011;5585;52.530;7.320;2023-07-31T14:56:15;4.28;;;3.58;;
11064;SDS011;5585;52.530;7.320;2023-07-31T14:58:42;4.07;;;3.35;;
11064;SDS011;5585;52.530;7.320;2023-07-31T15:01:08;4.10;;;3.42;;
11064;SDS011;5585;52.530;7.320;2023-07-31T15:03:37;4.68;;;3.90;;